Time;durP1;ratioP1;P1;durP2;ratioP2;P2;SDS_P1;SDS_P2;PMS_P1;PMS_P2;Temp;Humidity;BMP_temperature;BMP_pressure;BME280_temperature;BME280_humidity;BME280_pressure;Samples;Min_cycle;Max_cycle;Signal;HPM_P1;HPM_P2
2023/12/22 00:01:16;;;;;;;24.27;4.32;;;6.40;99.90;;;;;;5066394;28;20675;-39
2023/12/22 00:03:43;;;;;;;28.02;5.00;;;6.50;99.90;;;;;;5064945;28;20213;-39
2023/12/22 00:06:11;;;;;;;25.27;4.28;;;6.70;99.90;;;;;;5064448;28;20179;-37
2023/12/22 00:08:37;;;;;;;27.92;4.85;;;6.80;99.90;;;;;;5062952;28;20191;-36
2023/12/22 00:11:03;;;;;;;17.55;3.58;;;6.80;99.90;;;;;;5066226;28;20754;-39
2023/12/22 00:13:30;;;;;;;24.45;4.32;;;6.90;99.90;;;;;;5065430;28;20194;-39
2023/12/22 00:15:55;;;;;;;7.88;2.75;;;6.90;99.90;;;;;;5065599;28;20196;-39
2023/12/22 00:18:21;;;;;;;25.83;4.47;;;6.90;99.90;;;;;;5064396;28;20948;-38
2023/12/22 00:20:47;;;;;;;15.20;3.28;;;6.60;99.90;;;;;;5065257;28;20238;-40
2023/12/22 00:23:13;;;;;;;19.95;3.72;;;6.20;99.90;;;;;;5065465;28;20309;-38
2023/12/22 00:25:39;;;;;;;21.15;3.45;;;5.90;99.90;;;;;;5064724;28;20214;-38
2023/12/22 00:28:05;;;;;;;20.92;3.75;;;5.80;99.90;;;;;;5064614;28;20187;-39
2023/12/22 00:30:31;;;;;;;24.45;4.75;;;5.80;99.90;;;;;;5065695;28;20210;-37
2023/12/22 00:32:57;;;;;;;15.65;3.42;;;5.70;99.90;;;;;;5061706;28;20210;-39
2023/12/22 00:35:23;;;;;;;29.75;4.20;;;5.70;99.90;;;;;;5063983;28;20580;-39
2023/12/22 00:37:48;;;;;;;27.65;4.68;;;5.70;99.90;;;;;;5065506;28;20186;-39
2023/12/22 00:40:14;;;;;;;30.67;4.18;;;5.80;99.90;;;;;;5063112;28;20297;-39
2023/12/22 00:42:40;;;;;;;10.52;2.35;;;5.80;99.90;;;;;;5063585;28;20195;-40
2023/12/22 00:45:06;;;;;;;6.32;1.42;;;5.80;99.90;;;;;;5064486;28;20265;-37
2023/12/22 00:47:35;;;;;;;9.13;2.08;;;5.60;99.90;;;;;;5064995;28;20223;-39
2023/12/22 00:50:02;;;;;;;9.27;2.30;;;5.50;99.90;;;;;;5062869;28;20214;-39
2023/12/22 00:52:28;;;;;;;16.02;2.95;;;5.40;99.90;;;;;;5063134;28;20670;-38
2023/12/22 00:54:54;;;;;;;17.52;2.95;;;5.40;99.90;;;;;;5064375;28;20195;-39
2023/12/22 00:57:20;;;;;;;19.98;3.45;;;5.40;99.90;;;;;;5064789;28;20636;-39
2023/12/22 00:59:47;;;;;;;15.35;2.65;;;5.50;99.90;;;;;;5045269;28;20218;-37
2023/12/22 01:02:17;;;;;;;18.20;2.10;;;5.50;99.90;;;;;;5063267;28;20190;-41
2023/12/22 01:04:43;;;;;;;14.45;2.25;;;5.60;99.90;;;;;;5066140;28;20627;-39
2023/12/22 01:07:11;;;;;;;3.80;1.65;;;5.60;99.90;;;;;;5063860;28;20258;-39
2023/12/22 01:09:37;;;;;;;16.52;2.75;;;5.70;99.90;;;;;;5064828;28;20185;-40
2023/12/22 01:12:04;;;;;;;11.20;2.30;;;5.70;99.90;;;;;;5063194;28;20195;-37
2023/12/22 01:14:30;;;;;;;11.15;2.10;;;5.80;99.90;;;;;;5062295;28;20218;-40
2023/12/22 01:16:56;;;;;;;15.35;3.15;;;5.80;99.90;;;;;;5046926;28;20290;-39
2023/12/22 01:19:22;;;;;;;11.88;2.88;;;5.90;99.90;;;;;;5063625;28;21031;-38
2023/12/22 01:21:49;;;;;;;26.63;4.50;;;5.90;99.90;;;;;;5063342;28;20199;-38
2023/12/22 01:24:15;;;;;;;23.02;4.30;;;6.00;99.90;;;;;;5064853;28;20238;-39
2023/12/22 01:26:41;;;;;;;21.50;4.13;;;6.10;99.90;;;;;;5062592;28;20190;-38
2023/12/22 01:29:07;;;;;;;22.35;3.80;;;6.10;99.90;;;;;;5062950;28;20190;-36
2023/12/22 01:31:33;;;;;;;17.52;2.85;;;6.20;99.90;;;;;;5065520;28;20561;-41
2023/12/22 01:33:59;;;;;;;34.47;5.40;;;6.30;99.90;;;;;;5062152;28;20190;-40
2023/12/22 01:36:24;;;;;;;35.08;5.40;;;6.40;99.90;;;;;;5064106;28;20197;-37
2023/12/22 01:38:50;;;;;;;31.45;4.68;;;6.40;99.90;;;;;;5062719;28;20244;-38
2023/12/22 01:41:16;;;;;;;30.25;5.25;;;6.40;99.90;;;;;;5063749;28;20678;-38
2023/12/22 01:43:42;;;;;;;28.58;4.35;;;6.50;99.90;;;;;;5063180;28;20208;-38
2023/12/22 01:46:10;;;;;;;25.25;3.88;;;6.50;99.90;;;;;;5064320;28;20198;-40
2023/12/22 01:48:37;;;;;;;26.85;3.92;;;6.60;99.90;;;;;;5063272;28;20312;-38
2023/12/22 01:51:05;;;;;;;23.00;4.38;;;6.70;99.90;;;;;;5079109;28;20639;-39
2023/12/22 01:53:32;;;;;;;18.77;3.10;;;6.70;99.90;;;;;;5060430;28;20269;-40
2023/12/22 01:55:59;;;;;;;16.73;2.85;;;6.60;99.90;;;;;;5062799;28;20255;-40
2023/12/22 01:58:27;;;;;;;11.00;2.72;;;6.50;99.90;;;;;;5063194;28;20190;-40
2023/12/22 02:00:53;;;;;;;14.43;3.00;;;6.40;99.90;;;;;;5060769;28;20300;-39
2023/12/22 02:03:20;;;;;;;18.83;3.22;;;6.40;99.90;;;;;;5061474;28;20741;-38
2023/12/22 02:05:47;;;;;;;29.08;4.88;;;6.30;99.90;;;;;;5061233;28;20194;-42
2023/12/22 02:08:13;;;;;;;13.80;3.25;;;6.20;99.90;;;;;;5061216;28;20692;-39
2023/12/22 02:10:39;;;;;;;23.45;4.85;;;6.20;99.90;;;;;;5061522;28;20226;-38
2023/12/22 02:13:05;;;;;;;27.42;4.72;;;6.30;99.90;;;;;;5060269;28;20239;-40
2023/12/22 02:15:33;;;;;;;31.48;4.07;;;6.30;99.90;;;;;;5077665;28;20194;-37
2023/12/22 02:18:17;;;;;;;15.02;3.03;;;6.40;99.90;;;;;;5063766;28;20720;-38
2023/12/22 02:20:44;;;;;;;13.48;2.65;;;6.40;99.90;;;;;;5061882;28;20300;-38
2023/12/22 02:23:10;;;;;;;14.90;2.78;;;6.30;99.90;;;;;;5063330;28;21202;-40
2023/12/22 02:25:36;;;;;;;22.00;3.38;;;6.10;99.90;;;;;;5061991;28;20269;-38
2023/12/22 02:28:07;;;;;;;25.92;3.38;;;6.00;99.90;;;;;;5062327;28;20327;-37
2023/12/22 02:30:55;;;;;;;16.67;3.50;;;5.80;99.90;;;;;;5062755;28;20191;-41
2023/12/22 02:33:23;;;;;;;21.85;3.17;;;5.80;99.90;;;;;;5050326;28;20251;-40
2023/12/22 02:35:51;;;;;;;19.65;3.25;;;5.70;99.90;;;;;;5060922;28;20278;-38
2023/12/22 02:38:19;;;;;;;15.73;2.80;;;5.60;99.90;;;;;;5062774;28;20227;-40
2023/12/22 02:40:45;;;;;;;22.10;3.15;;;5.60;99.90;;;;;;5061980;28;21166;-39
2023/12/22 02:43:11;;;;;;;29.52;3.83;;;5.60;99.90;;;;;;5062015;28;20197;-36
2023/12/22 02:45:37;;;;;;;31.42;4.10;;;5.60;99.90;;;;;;5061982;28;20198;-41
2023/12/22 02:48:04;;;;;;;13.80;3.10;;;5.60;99.90;;;;;;5062177;28;20205;-38
2023/12/22 02:50:30;;;;;;;25.20;3.25;;;5.60;99.90;;;;;;5062339;28;20191;-37
2023/12/22 02:52:55;;;;;;;21.77;4.22;;;5.70;99.90;;;;;;5059800;28;20669;-40
2023/12/22 02:55:21;;;;;;;33.47;5.50;;;5.80;99.90;;;;;;5062982;28;20658;-38
2023/12/22 02:57:47;;;;;;;21.48;4.60;;;5.80;99.90;;;;;;5062996;28;20245;-37
2023/12/22 03:00:13;;;;;;;15.45;3.65;;;5.90;99.90;;;;;;5061610;28;20206;-40
2023/12/22 03:02:39;;;;;;;19.63;3.00;;;6.00;99.90;;;;;;5045004;28;20658;-39
2023/12/22 03:05:06;;;;;;;12.25;3.00;;;6.20;99.90;;;;;;5060831;28;20186;-39
2023/12/22 03:07:31;;;;;;;23.42;3.17;;;6.00;99.90;;;;;;5062199;28;20222;-38
2023/12/22 03:09:57;;;;;;;10.30;2.30;;;5.70;99.90;;;;;;5062232;28;20229;-40
2023/12/22 03:12:23;;;;;;;15.73;2.85;;;5.60;99.90;;;;;;5062212;28;20577;-40
2023/12/22 03:14:49;;;;;;;8.30;2.30;;;5.40;99.90;;;;;;5044345;28;20312;-39
2023/12/22 03:17:16;;;;;;;10.35;2.10;;;5.10;99.90;;;;;;5062113;28;20189;-38
2023/12/22 03:19:41;;;;;;;5.80;1.65;;;5.00;99.90;;;;;;5059952;28;20240;-38
2023/12/22 03:22:08;;;;;;;12.75;2.53;;;4.90;99.90;;;;;;5061667;28;20179;-41
2023/12/22 03:24:33;;;;;;;23.02;3.10;;;4.80;99.90;;;;;;5063001;28;20241;-40
2023/12/22 03:26:59;;;;;;;16.38;2.75;;;4.80;99.90;;;;;;5061359;28;20198;-38
2023/12/22 03:29:25;;;;;;;11.25;2.45;;;4.80;99.90;;;;;;5061123;28;20190;-38
2023/12/22 03:31:51;;;;;;;17.90;3.28;;;4.80;99.90;;;;;;5063476;28;20190;-38
2023/12/22 03:34:17;;;;;;;29.33;3.65;;;4.80;99.90;;;;;;5061441;28;20193;-39
2023/12/22 03:36:44;;;;;;;22.20;3.50;;;4.90;99.90;;;;;;5061225;28;20186;-39
2023/12/22 03:39:10;;;;;;;28.90;4.88;;;4.90;99.90;;;;;;5061332;28;20710;-40
2023/12/22 03:41:36;;;;;;;29.15;5.07;;;5.00;99.90;;;;;;5062333;28;20186;-39
2023/12/22 03:44:02;;;;;;;28.70;4.82;;;5.20;99.90;;;;;;5062597;28;20182;-40
2023/12/22 03:46:28;;;;;;;22.98;3.67;;;5.30;99.90;;;;;;5063120;28;20201;-39
2023/12/22 03:48:54;;;;;;;12.95;3.22;;;5.40;99.90;;;;;;5064306;28;20179;-39
2023/12/22 03:51:20;;;;;;;8.38;2.15;;;5.50;99.90;;;;;;5068056;28;20190;-37
2023/12/22 03:53:46;;;;;;;4.88;1.55;;;5.60;99.90;;;;;;5065303;28;20276;-39
2023/12/22 03:56:12;;;;;;;15.20;2.92;;;5.60;99.90;;;;;;5065529;28;20190;-39
2023/12/22 03:58:38;;;;;;;15.68;2.90;;;5.70;99.90;;;;;;5066352;28;20252;-39
2023/12/22 04:01:07;;;;;;;14.65;2.60;;;5.80;99.90;;;;;;5064142;28;20229;-37
2023/12/22 04:03:33;;;;;;;15.23;3.13;;;5.90;99.90;;;;;;5064713;28;20987;-38
2023/12/22 04:06:03;;;;;;;17.48;3.15;;;6.00;99.90;;;;;;5065643;28;20312;-41
2023/12/22 04:08:29;;;;;;;19.30;3.78;;;6.00;99.90;;;;;;5066628;28;20360;-38
2023/12/22 04:10:55;;;;;;;23.67;3.88;;;6.10;99.90;;;;;;5067249;28;20710;-37
2023/12/22 04:13:21;;;;;;;21.65;3.90;;;6.10;99.90;;;;;;5064705;28;20199;-40
2023/12/22 04:15:47;;;;;;;22.85;3.95;;;6.10;99.90;;;;;;5064661;28;20194;-39
2023/12/22 04:18:12;;;;;;;25.60;4.38;;;6.20;99.90;;;;;;5065357;28;20266;-41
2023/12/22 04:20:38;;;;;;;27.52;4.65;;;6.20;99.90;;;;;;5065348;28;20238;-38
2023/12/22 04:23:04;;;;;;;24.00;4.50;;;6.30;99.90;;;;;;5065232;28;20222;-40
2023/12/22 04:25:30;;;;;;;32.53;6.28;;;6.30;99.90;;;;;;5081628;28;20236;-36
2023/12/22 04:27:56;;;;;;;30.17;4.43;;;6.40;99.90;;;;;;5080989;28;21172;-38
2023/12/22 04:30:22;;;;;;;47.45;6.82;;;6.40;99.90;;;;;;5064789;28;20189;-40
2023/12/22 04:32:48;;;;;;;29.00;4.72;;;6.40;99.90;;;;;;5064418;28;20189;-39
2023/12/22 04:35:14;;;;;;;19.50;2.83;;;6.40;99.90;;;;;;5065298;28;20561;-38
2023/12/22 04:37:40;;;;;;;15.07;3.90;;;6.50;99.90;;;;;;5066057;28;20197;-39
2023/12/22 04:40:06;;;;;;;15.95;3.47;;;6.60;99.90;;;;;;5063268;28;20222;-39
2023/12/22 04:42:32;;;;;;;13.77;2.65;;;6.70;99.90;;;;;;5080728;28;20236;-38
2023/12/22 04:44:58;;;;;;;21.08;3.97;;;6.80;99.90;;;;;;5066831;28;20216;-38
2023/12/22 04:47:24;;;;;;;11.90;3.22;;;6.80;99.90;;;;;;5062637;28;20205;-40
2023/12/22 04:49:50;;;;;;;23.33;4.60;;;7.00;99.90;;;;;;5063440;28;20629;-37
2023/12/22 04:52:16;;;;;;;16.73;3.08;;;7.00;99.90;;;;;;5064961;28;20285;-38
2023/12/22 04:54:42;;;;;;;24.92;4.00;;;7.10;99.90;;;;;;5062358;28;20202;-37
2023/12/22 04:57:08;;;;;;;15.15;3.22;;;7.10;99.90;;;;;;5063874;28;20190;-39
2023/12/22 04:59:33;;;;;;;27.55;3.97;;;7.20;99.90;;;;;;5066228;28;20214;-40
2023/12/22 05:01:59;;;;;;;19.98;3.28;;;7.20;99.90;;;;;;5080418;28;20182;-37
2023/12/22 05:04:26;;;;;;;26.48;4.20;;;7.20;99.90;;;;;;5064496;28;20650;-40
2023/12/22 05:06:52;;;;;;;9.77;1.98;;;7.20;99.90;;;;;;5064098;28;20244;-36
2023/12/22 05:09:17;;;;;;;20.17;3.55;;;7.20;99.90;;;;;;5065045;28;20186;-38
2023/12/22 05:11:43;;;;;;;7.22;2.40;;;7.30;99.90;;;;;;5065693;28;20595;-41
2023/12/22 05:14:10;;;;;;;21.83;3.58;;;7.30;99.90;;;;;;5061572;28;20190;-38
2023/12/22 05:16:35;;;;;;;20.77;3.97;;;7.40;99.90;;;;;;5064411;28;20194;-39
2023/12/22 05:19:01;;;;;;;17.23;3.80;;;7.40;99.90;;;;;;5065468;28;20187;-38
2023/12/22 05:21:27;;;;;;;20.08;3.85;;;7.50;99.90;;;;;;5063102;28;20292;-37
2023/12/22 05:23:54;;;;;;;19.35;3.85;;;7.50;99.90;;;;;;5063946;28;20304;-39
2023/12/22 05:26:20;;;;;;;32.95;4.57;;;7.50;99.90;;;;;;5063364;28;20550;-39
2023/12/22 05:28:49;;;;;;;15.88;2.97;;;7.50;99.90;;;;;;5063773;28;20191;-40
2023/12/22 05:31:16;;;;;;;23.35;3.53;;;7.50;99.90;;;;;;5063731;28;20205;-38
2023/12/22 05:33:42;;;;;;;29.20;4.97;;;7.50;99.90;;;;;;5063545;28;20208;-38
2023/12/22 05:36:08;;;;;;;22.70;4.30;;;7.50;99.90;;;;;;5061720;28;20194;-38
2023/12/22 05:38:40;;;;;;;18.10;3.90;;;7.50;99.90;;;;;;5063231;28;20200;-39
2023/12/22 05:41:07;;;;;;;27.25;4.85;;;7.50;99.90;;;;;;5063570;28;20241;-37
2023/12/22 05:43:33;;;;;;;24.63;4.00;;;7.50;99.90;;;;;;5063446;28;20194;-36
2023/12/22 05:45:59;;;;;;;16.08;3.22;;;7.60;99.90;;;;;;5064883;28;20602;-37
2023/12/22 05:48:28;;;;;;;25.08;4.20;;;7.50;99.90;;;;;;5061010;28;20178;-38
2023/12/22 05:51:02;;;;;;;8.93;2.60;;;7.50;99.90;;;;;;5063481;28;20187;-39
2023/12/22 05:53:28;;;;;;;9.70;2.15;;;7.50;99.90;;;;;;5064271;28;20277;-39
2023/12/22 05:55:53;;;;;;;29.02;5.22;;;7.50;99.90;;;;;;5064193;28;20329;-37
2023/12/22 05:58:19;;;;;;;21.88;4.03;;;7.60;99.90;;;;;;5060523;28;20943;-38
2023/12/22 06:00:45;;;;;;;18.17;3.08;;;7.50;99.90;;;;;;5063580;28;20274;-40
2023/12/22 06:03:11;;;;;;;17.42;3.65;;;7.50;99.90;;;;;;5063877;28;20235;-36
2023/12/22 06:05:37;;;;;;;20.98;3.85;;;7.50;99.90;;;;;;5061564;28;20285;-38
2023/12/22 06:08:03;;;;;;;6.72;1.95;;;7.50;99.90;;;;;;5062358;28;20186;-37
2023/12/22 06:10:29;;;;;;;25.70;4.00;;;7.60;99.90;;;;;;5062858;28;20681;-36
2023/12/22 06:12:57;;;;;;;18.88;3.55;;;7.60;99.90;;;;;;5063229;28;20223;-35
2023/12/22 06:15:24;;;;;;;21.90;3.70;;;7.60;99.90;;;;;;5063375;28;20198;-37
2023/12/22 06:17:50;;;;;;;28.42;4.43;;;7.60;99.90;;;;;;5063285;28;20301;-36
2023/12/22 06:20:15;;;;;;;24.02;4.30;;;7.70;99.90;;;;;;5056730;28;20297;-37
2023/12/22 06:22:42;;;;;;;18.90;3.40;;;7.60;99.90;;;;;;5062953;28;20230;-38
2023/12/22 06:25:09;;;;;;;24.77;4.30;;;7.70;99.90;;;;;;5063355;28;20195;-38
2023/12/22 06:27:36;;;;;;;27.92;4.50;;;7.70;99.90;;;;;;5062210;28;20627;-36
2023/12/22 06:30:04;;;;;;;34.42;4.53;;;7.70;99.90;;;;;;5062844;28;20191;-37
2023/12/22 06:32:30;;;;;;;29.38;4.93;;;7.70;99.90;;;;;;5061938;28;20170;-39
2023/12/22 06:34:56;;;;;;;23.05;4.05;;;7.60;99.90;;;;;;5061820;28;20229;-38
2023/12/22 06:37:22;;;;;;;33.85;4.30;;;7.70;99.90;;;;;;5062131;28;20209;-37
2023/12/22 06:39:48;;;;;;;25.63;4.32;;;7.70;99.90;;;;;;5059058;28;20618;-38
2023/12/22 06:42:14;;;;;;;23.67;4.78;;;7.70;99.90;;;;;;5061835;28;21112;-39
2023/12/22 06:44:43;;;;;;;23.05;4.53;;;7.70;99.90;;;;;;5061972;28;20534;-39
2023/12/22 06:47:09;;;;;;;18.25;3.05;;;7.70;99.90;;;;;;5078059;28;20277;-38
2023/12/22 06:49:35;;;;;;;19.02;3.28;;;7.60;99.90;;;;;;5060101;28;20277;-38
2023/12/22 06:52:01;;;;;;;22.13;3.75;;;7.10;99.90;;;;;;5059771;28;20430;-38
2023/12/22 06:54:29;;;;;;;19.60;2.78;;;6.70;99.90;;;;;;5062284;28;20186;-38
2023/12/22 06:56:54;;;;;;;19.45;3.90;;;6.20;99.90;;;;;;5062328;28;20191;-39
2023/12/22 06:59:20;;;;;;;21.15;3.20;;;6.10;99.90;;;;;;5060633;28;20205;-39
2023/12/22 07:01:46;;;;;;;14.63;3.00;;;5.90;99.90;;;;;;5061029;28;20221;-39
2023/12/22 07:04:12;;;;;;;24.45;3.28;;;5.80;99.90;;;;;;5061539;28;20252;-41
2023/12/22 07:06:38;;;;;;;23.27;3.38;;;5.80;99.90;;;;;;5060963;28;20201;-36
2023/12/22 07:09:19;;;;;;;28.77;3.85;;;5.80;99.90;;;;;;5059519;28;20198;-38
2023/12/22 07:11:51;;;;;;;21.23;4.07;;;5.90;99.90;;;;;;5059488;28;20190;-38
2023/12/22 07:14:17;;;;;;;24.70;3.92;;;6.00;99.90;;;;;;5059492;28;20184;-38
2023/12/22 07:16:43;;;;;;;16.63;3.88;;;6.20;99.90;;;;;;5062079;28;20306;-39
2023/12/22 07:19:10;;;;;;;25.25;3.72;;;6.30;99.90;;;;;;5059933;28;20240;-37
2023/12/22 07:21:36;;;;;;;22.42;3.88;;;6.40;99.90;;;;;;5065250;28;20174;-37
2023/12/22 07:24:02;;;;;;;25.35;4.32;;;6.50;99.90;;;;;;5065502;28;20244;-38
2023/12/22 07:26:28;;;;;;;19.17;3.70;;;6.60;99.90;;;;;;5066095;28;20569;-39
2023/12/22 07:28:54;;;;;;;13.65;3.42;;;6.60;99.90;;;;;;5064157;28;20198;-38
2023/12/22 07:31:20;;;;;;;27.83;4.38;;;6.70;99.90;;;;;;5064565;28;20666;-37
2023/12/22 07:33:46;;;;;;;21.17;4.18;;;6.80;99.90;;;;;;5064433;28;20252;-36
2023/12/22 07:36:12;;;;;;;32.45;4.60;;;6.70;99.90;;;;;;5064332;28;20195;-40
2023/12/22 07:38:39;;;;;;;25.67;3.85;;;6.70;99.90;;;;;;5064670;28;21047;-40
2023/12/22 07:41:05;;;;;;;34.45;5.32;;;6.60;99.90;;;;;;5064424;28;20230;-39
2023/12/22 07:43:31;;;;;;;31.95;4.85;;;6.50;99.90;;;;;;5065552;28;20190;-39
2023/12/22 07:45:57;;;;;;;35.08;4.63;;;6.50;99.90;;;;;;5063270;28;20741;-39
2023/12/22 07:48:25;;;;;;;28.75;4.38;;;6.50;99.90;;;;;;5063603;28;20583;-38
2023/12/22 07:50:50;;;;;;;27.33;4.70;;;6.50;99.90;;;;;;5047087;28;20186;-37
2023/12/22 07:53:16;;;;;;;35.05;4.75;;;6.50;99.90;;;;;;5064560;28;20191;-41
2023/12/22 07:55:43;;;;;;;41.63;5.20;;;6.50;99.90;;;;;;5064389;28;20300;-38
2023/12/22 07:58:09;;;;;;;32.85;5.43;;;6.50;99.90;;;;;;5061134;28;20552;-40
2023/12/22 08:00:36;;;;;;;24.85;4.43;;;6.50;99.90;;;;;;5064534;28;20211;-38
2023/12/22 08:03:02;;;;;;;30.05;4.88;;;6.60;99.90;;;;;;5064821;28;20642;-38
2023/12/22 08:05:29;;;;;;;24.85;4.38;;;6.60;99.90;;;;;;5065404;28;20201;-40
2023/12/22 08:07:55;;;;;;;33.95;3.88;;;6.60;99.90;;;;;;5063923;28;20205;-38
2023/12/22 08:10:21;;;;;;;28.42;4.25;;;6.70;99.90;;;;;;5063492;28;20301;-37
2023/12/22 08:12:47;;;;;;;23.15;3.13;;;6.70;99.90;;;;;;5064663;28;20351;-38
2023/12/22 08:15:13;;;;;;;23.02;4.03;;;6.80;99.90;;;;;;5063979;28;20198;-39
2023/12/22 08:17:50;;;;;;;23.10;3.63;;;6.90;99.90;;;;;;5063912;28;20190;-39
2023/12/22 08:20:19;;;;;;;21.38;3.65;;;7.10;99.90;;;;;;5064694;28;20206;-37
2023/12/22 08:22:50;;;;;;;22.70;4.07;;;7.20;99.90;;;;;;5063053;28;20230;-36
2023/12/22 08:25:19;;;;;;;19.48;3.35;;;7.30;99.90;;;;;;5062435;28;20186;-40
2023/12/22 08:27:45;;;;;;;14.13;2.78;;;7.30;99.90;;;;;;5065793;28;20273;-38
2023/12/22 08:30:12;;;;;;;23.35;3.45;;;7.30;99.90;;;;;;5063801;28;20238;-36
2023/12/22 08:32:38;;;;;;;26.33;4.22;;;7.30;99.90;;;;;;5062432;28;20719;-37
2023/12/22 08:35:04;;;;;;;24.23;3.88;;;7.40;99.90;;;;;;5059119;28;20190;-38
2023/12/22 08:37:30;;;;;;;27.02;3.85;;;7.40;99.90;;;;;;5063220;28;20639;-40
2023/12/22 08:39:57;;;;;;;13.75;3.00;;;7.40;99.90;;;;;;5063500;28;20213;-40
2023/12/22 08:42:24;;;;;;;27.45;4.13;;;7.40;99.90;;;;;;5065176;28;20195;-38
2023/12/22 08:44:50;;;;;;;16.23;3.50;;;7.40;99.90;;;;;;5062455;28;20274;-41
2023/12/22 08:47:16;;;;;;;22.83;3.70;;;7.40;99.90;;;;;;5063981;28;20206;-39
2023/12/22 08:49:42;;;;;;;27.73;4.18;;;7.40;99.90;;;;;;5062867;28;20198;-39
2023/12/22 08:52:08;;;;;;;25.60;4.05;;;7.50;99.90;;;;;;5062291;28;20190;-39
2023/12/22 08:54:35;;;;;;;23.13;3.67;;;7.40;99.90;;;;;;5062633;28;20186;-38
2023/12/22 08:57:04;;;;;;;15.95;3.28;;;7.40;99.90;;;;;;5079877;28;20201;-40
2023/12/22 08:59:30;;;;;;;22.98;3.67;;;7.40;99.90;;;;;;5063514;28;20190;-38
2023/12/22 09:01:56;;;;;;;22.48;4.38;;;7.40;99.90;;;;;;5061662;28;20244;-39
2023/12/22 09:04:22;;;;;;;28.05;4.32;;;7.30;99.90;;;;;;5064542;28;20189;-39
2023/12/22 09:06:49;;;;;;;27.98;4.32;;;7.30;99.90;;;;;;5062254;28;20182;-41
2023/12/22 09:09:15;;;;;;;22.85;3.78;;;7.30;99.90;;;;;;5063600;28;20187;-40
2023/12/22 09:11:41;;;;;;;27.67;4.15;;;7.30;99.90;;;;;;5062512;28;20253;-36
2023/12/22 09:14:10;;;;;;;24.35;3.80;;;7.30;99.90;;;;;;5062346;28;20186;-38
2023/12/22 09:16:39;;;;;;;24.45;3.30;;;7.30;99.90;;;;;;5062734;28;20210;-39
2023/12/22 09:19:06;;;;;;;24.42;4.20;;;7.40;99.90;;;;;;5061460;28;20218;-38
2023/12/22 09:21:31;;;;;;;22.85;4.25;;;7.40;99.90;;;;;;5061869;28;20210;-37
2023/12/22 09:23:57;;;;;;;25.10;3.78;;;7.40;99.90;;;;;;5061518;28;20728;-39
2023/12/22 09:26:23;;;;;;;27.48;3.83;;;7.40;99.90;;;;;;5059246;28;20248;-38
2023/12/22 09:28:49;;;;;;;18.90;3.88;;;7.40;99.90;;;;;;5061335;28;20178;-38
2023/12/22 09:31:15;;;;;;;22.92;3.08;;;7.50;99.90;;;;;;5063200;28;20204;-41
2023/12/22 09:33:42;;;;;;;19.02;4.00;;;7.50;99.90;;;;;;5061085;28;20194;-38
2023/12/22 09:36:09;;;;;;;16.45;3.60;;;7.50;99.90;;;;;;5064410;28;20193;-37
2023/12/22 09:38:35;;;;;;;21.17;3.95;;;7.50;99.90;;;;;;5062791;28;20198;-38
2023/12/22 09:41:01;;;;;;;18.40;2.97;;;7.50;99.90;;;;;;5060670;28;20214;-36
2023/12/22 09:43:28;;;;;;;25.80;3.42;;;7.50;99.90;;;;;;5062909;28;20278;-38
2023/12/22 09:45:55;;;;;;;24.73;3.50;;;7.60;99.90;;;;;;5060456;28;20188;-36
2023/12/22 09:48:27;;;;;;;14.82;2.80;;;7.50;99.90;;;;;;5059649;28;20267;-39
2023/12/22 09:50:56;;;;;;;16.33;2.95;;;7.70;99.90;;;;;;5063205;28;20190;-40
2023/12/22 09:53:24;;;;;;;23.50;3.35;;;7.70;99.90;;;;;;5060692;28;20187;-38
2023/12/22 09:55:51;;;;;;;22.50;3.15;;;7.70;99.90;;;;;;5062812;28;20281;-40
2023/12/22 09:58:17;;;;;;;16.05;3.15;;;7.80;99.90;;;;;;5061705;28;20194;-40
2023/12/22 10:00:43;;;;;;;19.17;2.97;;;7.80;99.90;;;;;;5060300;28;20690;-40
2023/12/22 10:03:14;;;;;;;12.50;2.53;;;7.90;99.90;;;;;;5078037;28;20187;-36
2023/12/22 10:05:40;;;;;;;15.70;3.15;;;7.90;99.90;;;;;;5062509;28;20198;-38
2023/12/22 10:08:10;;;;;;;13.77;2.63;;;8.00;99.90;;;;;;5059599;28;21179;-38
2023/12/22 10:10:40;;;;;;;18.15;3.25;;;8.00;99.90;;;;;;5061291;28;20593;-36
2023/12/22 10:13:09;;;;;;;15.20;3.15;;;8.00;99.90;;;;;;5061399;28;20827;-38
2023/12/22 10:15:43;;;;;;;16.67;3.15;;;8.10;99.90;;;;;;5056947;28;20706;-37
2023/12/22 10:18:09;;;;;;;13.32;2.83;;;8.10;99.90;;;;;;5055964;28;20731;-39
2023/12/22 10:20:36;;;;;;;20.73;3.30;;;8.20;99.90;;;;;;5060791;28;20254;-38
2023/12/22 10:23:03;;;;;;;19.42;3.33;;;8.20;99.90;;;;;;5057913;28;20281;-36
2023/12/22 10:25:29;;;;;;;19.40;4.15;;;8.20;99.90;;;;;;5058661;28;20726;-41
2023/12/22 10:27:56;;;;;;;20.00;4.07;;;8.20;99.90;;;;;;5060696;28;20549;-39
2023/12/22 10:30:24;;;;;;;18.85;3.60;;;8.30;99.90;;;;;;5058249;28;20257;-39
2023/12/22 10:32:53;;;;;;;15.93;3.00;;;8.30;99.90;;;;;;5059290;28;20545;-38
2023/12/22 10:35:23;;;;;;;17.60;3.70;;;8.30;99.90;;;;;;5060842;28;20178;-39
2023/12/22 10:37:52;;;;;;;24.77;2.97;;;8.40;99.90;;;;;;5060736;28;20319;-36
2023/12/22 10:40:19;;;;;;;16.08;3.35;;;8.40;99.90;;;;;;5057975;28;20255;-38
2023/12/22 10:42:45;;;;;;;17.98;3.42;;;8.40;99.90;;;;;;5057107;28;21880;-37
2023/12/22 10:45:11;;;;;;;14.40;3.20;;;8.50;99.90;;;;;;5059516;28;20221;-38
2023/12/22 10:47:40;;;;;;;15.10;3.13;;;8.50;99.90;;;;;;5057228;28;20281;-38
2023/12/22 10:50:07;;;;;;;15.68;2.72;;;8.50;99.90;;;;;;5060565;28;20194;-39
2023/12/22 10:52:33;;;;;;;16.35;2.97;;;8.50;99.90;;;;;;5040302;28;20194;-36
2023/12/22 10:55:00;;;;;;;20.55;3.28;;;8.60;99.90;;;;;;5057867;28;20209;-38
2023/12/22 10:57:27;;;;;;;20.45;3.20;;;8.60;99.90;;;;;;5060007;28;20261;-39
2023/12/22 10:59:55;;;;;;;20.27;3.67;;;8.60;99.90;;;;;;5061019;28;20209;-39
2023/12/22 11:02:22;;;;;;;18.55;3.20;;;8.60;99.90;;;;;;5057481;28;20380;-39
2023/12/22 11:05:04;;;;;;;18.75;3.70;;;8.60;99.90;;;;;;5057184;28;20232;-37
2023/12/22 11:07:34;;;;;;;19.02;3.67;;;8.70;99.90;;;;;;5059505;28;20315;-38
2023/12/22 11:10:04;;;;;;;21.35;3.70;;;8.60;99.90;;;;;;5061282;28;20202;-37
2023/12/22 11:12:33;;;;;;;28.83;3.65;;;8.70;99.90;;;;;;5060847;28;20229;-35
2023/12/22 11:15:00;;;;;;;22.08;3.50;;;8.70;99.90;;;;;;5060380;28;20201;-37
2023/12/22 11:17:27;;;;;;;14.82;4.03;;;8.70;99.90;;;;;;5054849;28;20285;-39
2023/12/22 11:19:55;;;;;;;18.45;3.42;;;8.70;99.90;;;;;;5058769;28;20224;-39
2023/12/22 11:22:22;;;;;;;17.10;3.10;;;8.70;99.90;;;;;;5059458;28;20198;-38
2023/12/22 11:24:49;;;;;;;21.92;3.83;;;8.70;99.90;;;;;;5060524;28;20224;-41
2023/12/22 11:27:20;;;;;;;24.05;3.45;;;8.70;99.90;;;;;;5057376;28;20375;-38
2023/12/22 11:29:50;;;;;;;24.65;3.63;;;8.80;99.90;;;;;;5073377;28;20198;-37
2023/12/22 11:32:18;;;;;;;16.98;3.90;;;8.70;99.90;;;;;;5057674;28;20206;-37
2023/12/22 11:34:45;;;;;;;19.67;3.70;;;8.80;99.90;;;;;;5057406;28;20194;-39
2023/12/22 11:37:15;;;;;;;25.00;3.70;;;8.80;99.90;;;;;;5039027;28;20593;-37
2023/12/22 11:39:42;;;;;;;19.15;3.17;;;8.80;99.90;;;;;;5058675;28;20972;-38
2023/12/22 11:42:18;;;;;;;20.95;3.33;;;8.80;99.90;;;;;;5046576;28;20220;-40
2023/12/22 11:44:44;;;;;;;15.52;3.60;;;8.80;99.90;;;;;;5059930;28;20526;-39
2023/12/22 11:47:13;;;;;;;23.35;3.28;;;8.90;99.90;;;;;;5058367;28;20535;-38
2023/12/22 11:49:39;;;;;;;18.95;3.25;;;8.90;99.90;;;;;;5059007;28;20187;-37
2023/12/22 11:52:12;;;;;;;20.27;4.53;;;8.90;99.90;;;;;;5057123;28;20194;-39
2023/12/22 11:54:49;;;;;;;22.20;3.30;;;8.90;99.90;;;;;;5062397;28;20230;-40
2023/12/22 11:57:31;;;;;;;18.05;3.22;;;8.90;99.90;;;;;;5056994;28;20178;-38
2023/12/22 12:00:03;;;;;;;21.70;3.30;;;8.90;99.90;;;;;;5059558;28;20218;-38
2023/12/22 12:02:40;;;;;;;20.23;3.20;;;8.90;99.90;;;;;;5060262;28;20790;-37
2023/12/22 12:05:12;;;;;;;17.77;3.45;;;8.90;99.90;;;;;;5057802;28;20900;-40
2023/12/22 12:07:41;;;;;;;18.33;3.10;;;8.90;99.90;;;;;;5062044;28;20199;-36
2023/12/22 12:10:08;;;;;;;24.08;3.83;;;8.90;99.90;;;;;;5061637;28;20197;-38
2023/12/22 12:12:36;;;;;;;18.40;3.05;;;8.90;99.90;;;;;;5062713;28;20561;-39
2023/12/22 12:15:17;;;;;;;16.77;3.45;;;8.90;99.90;;;;;;5064922;28;20204;-39
2023/12/22 12:17:43;;;;;;;18.25;3.33;;;8.90;99.90;;;;;;5063229;28;20189;-39
2023/12/22 12:20:10;;;;;;;16.65;3.10;;;8.90;99.90;;;;;;5059082;28;20202;-36
2023/12/22 12:22:38;;;;;;;15.82;2.90;;;8.90;99.90;;;;;;5059013;28;20231;-40
2023/12/22 12:25:10;;;;;;;13.50;3.17;;;8.90;99.90;;;;;;5063727;28;20198;-39
2023/12/22 12:27:38;;;;;;;28.33;4.75;;;8.90;99.90;;;;;;5065183;28;20263;-38
2023/12/22 12:30:10;;;;;;;22.63;3.30;;;8.90;99.90;;;;;;5059675;28;20195;-37
2023/12/22 12:32:36;;;;;;;11.32;2.47;;;9.00;99.90;;;;;;5062042;28;21216;-37
2023/12/22 12:35:04;;;;;;;16.13;2.78;;;9.00;99.90;;;;;;5066889;28;20243;-40
2023/12/22 12:37:30;;;;;;;17.58;3.08;;;8.90;99.90;;;;;;5064525;28;20191;-39
2023/12/22 12:40:03;;;;;;;18.15;3.28;;;8.90;99.90;;;;;;5063894;28;20206;-37
2023/12/22 12:42:31;;;;;;;19.00;2.97;;;8.90;99.90;;;;;;5060055;28;20189;-38
2023/12/22 12:44:57;;;;;;;20.10;3.42;;;8.90;99.90;;;;;;5065390;28;20261;-38
2023/12/22 12:47:23;;;;;;;12.52;2.78;;;8.90;99.90;;;;;;5057834;28;20273;-40